sensor_id;sensor_type;location;lat;lon;timestamp;P1;durP1;ratioP1;P2;durP2;ratioP2
73684;SDS011;61985;51.070;14.064;2024-03-06T00:01:29;30.02;;;14.45;;
73684;SDS011;61985;51.070;14.064;2024-03-06T00:03:54;35.80;;;14.48;;
73684;SDS011;61985;51.070;14.064;2024-03-06T00:06:20;31.95;;;14.80;;
73684;SDS011;61985;51.070;14.064;2024-03-06T00:08:45;35.00;;;15.63;;
73684;SDS011;61985;51.070;14.064;2024-03-06T00:11:11;32.00;;;15.18;;
73684;SDS011;61985;51.070;14.064;2024-03-06T00:13:36;31.13;;;14.88;;
73684;SDS011;61985;51.070;14.064;2024-03-06T00:16:01;34.35;;;15.50;;
73684;SDS011;61985;51.070;14.064;2024-03-06T00:18:27;30.15;;;14.40;;
73684;SDS011;61985;51.070;14.064;2024-03-06T00:20:53;36.92;;;16.85;;
73684;SDS011;61985;51.070;14.064;2024-03-06T00:23:18;33.75;;;15.23;;
73684;SDS011;61985;51.070;14.064;2024-03-06T00:25:44;34.30;;;15.90;;
73684;SDS011;61985;51.070;14.064;2024-03-06T00:28:09;31.63;;;14.93;;
73684;SDS011;61985;51.070;14.064;2024-03-06T00:30:35;34.42;;;15.50;;
73684;SDS011;61985;51.070;14.064;2024-03-06T00:33:01;38.80;;;15.75;;
73684;SDS011;61985;51.070;14.064;2024-03-06T00:35:26;34.03;;;15.52;;
73684;SDS011;61985;51.070;14.064;2024-03-06T00:37:53;39.20;;;16.42;;
73684;SDS011;61985;51.070;14.064;2024-03-06T00:40:19;29.45;;;14.85;;
73684;SDS011;61985;51.070;14.064;2024-03-06T00:42:44;34.47;;;15.85;;
73684;SDS011;61985;51.070;14.064;2024-03-06T00:45:10;34.78;;;16.33;;
73684;SDS011;61985;51.070;14.064;2024-03-06T00:47:36;33.03;;;15.48;;
73684;SDS011;61985;51.070;14.064;2024-03-06T00:50:01;33.85;;;15.60;;
73684;SDS011;61985;51.070;14.064;2024-03-06T00:52:27;32.63;;;14.45;;
73684;SDS011;61985;51.070;14.064;2024-03-06T00:54:52;34.42;;;15.93;;
73684;SDS011;61985;51.070;14.064;2024-03-06T00:57:18;35.20;;;16.38;;
73684;SDS011;61985;51.070;14.064;2024-03-06T00:59:43;32.53;;;15.93;;
73684;SDS011;61985;51.070;14.064;2024-03-06T01:02:08;34.00;;;16.98;;
73684;SDS011;61985;51.070;14.064;2024-03-06T01:04:34;34.13;;;16.45;;
73684;SDS011;61985;51.070;14.064;2024-03-06T01:06:59;35.30;;;16.15;;
73684;SDS011;61985;51.070;14.064;2024-03-06T01:09:25;34.72;;;16.77;;
73684;SDS011;61985;51.070;14.064;2024-03-06T01:11:52;36.22;;;16.10;;
73684;SDS011;61985;51.070;14.064;2024-03-06T01:14:18;33.55;;;15.70;;
73684;SDS011;61985;51.070;14.064;2024-03-06T01:16:43;37.92;;;17.10;;
73684;SDS011;61985;51.070;14.064;2024-03-06T01:19:08;33.88;;;15.77;;
73684;SDS011;61985;51.070;14.064;2024-03-06T01:21:34;33.60;;;15.73;;
73684;SDS011;61985;51.070;14.064;2024-03-06T01:24:00;36.38;;;16.20;;
73684;SDS011;61985;51.070;14.064;2024-03-06T01:26:25;36.30;;;16.98;;
73684;SDS011;61985;51.070;14.064;2024-03-06T01:28:51;33.10;;;16.45;;
73684;SDS011;61985;51.070;14.064;2024-03-06T01:31:16;34.33;;;16.75;;
73684;SDS011;61985;51.070;14.064;2024-03-06T01:33:42;37.22;;;17.50;;
73684;SDS011;61985;51.070;14.064;2024-03-06T01:36:07;32.42;;;16.77;;
73684;SDS011;61985;51.070;14.064;2024-03-06T01:38:33;35.85;;;16.20;;
73684;SDS011;61985;51.070;14.064;2024-03-06T01:40:58;37.67;;;18.20;;
73684;SDS011;61985;51.070;14.064;2024-03-06T01:43:25;31.42;;;16.25;;
73684;SDS011;61985;51.070;14.064;2024-03-06T01:45:51;34.97;;;16.58;;
73684;SDS011;61985;51.070;14.064;2024-03-06T01:48:21;35.30;;;16.95;;
73684;SDS011;61985;51.070;14.064;2024-03-06T01:50:52;36.10;;;16.23;;
73684;SDS011;61985;51.070;14.064;2024-03-06T01:53:20;35.40;;;16.20;;
73684;SDS011;61985;51.070;14.064;2024-03-06T01:55:46;31.33;;;15.65;;
73684;SDS011;61985;51.070;14.064;2024-03-06T01:58:13;33.97;;;17.50;;
73684;SDS011;61985;51.070;14.064;2024-03-06T02:00:39;35.35;;;17.45;;
73684;SDS011;61985;51.070;14.064;2024-03-06T02:03:05;41.67;;;18.48;;
73684;SDS011;61985;51.070;14.064;2024-03-06T02:05:30;37.55;;;16.92;;
73684;SDS011;61985;51.070;14.064;2024-03-06T02:07:57;38.47;;;17.60;;
73684;SDS011;61985;51.070;14.064;2024-03-06T02:10:27;34.90;;;16.45;;
73684;SDS011;61985;51.070;14.064;2024-03-06T02:12:53;36.50;;;17.42;;
73684;SDS011;61985;51.070;14.064;2024-03-06T02:15:19;36.20;;;17.67;;
73684;SDS011;61985;51.070;14.064;2024-03-06T02:17:45;38.25;;;17.58;;
73684;SDS011;61985;51.070;14.064;2024-03-06T02:20:11;39.63;;;18.73;;
73684;SDS011;61985;51.070;14.064;2024-03-06T02:22:38;38.83;;;16.80;;
73684;SDS011;61985;51.070;14.064;2024-03-06T02:25:04;42.83;;;18.10;;
73684;SDS011;61985;51.070;14.064;2024-03-06T02:27:31;35.88;;;17.75;;
73684;SDS011;61985;51.070;14.064;2024-03-06T02:29:57;35.50;;;17.02;;
73684;SDS011;61985;51.070;14.064;2024-03-06T02:32:23;41.33;;;17.95;;
73684;SDS011;61985;51.070;14.064;2024-03-06T02:34:49;40.60;;;17.42;;
73684;SDS011;61985;51.070;14.064;2024-03-06T02:37:15;41.53;;;17.73;;
73684;SDS011;61985;51.070;14.064;2024-03-06T02:39:41;41.72;;;17.85;;
73684;SDS011;61985;51.070;14.064;2024-03-06T02:42:06;39.42;;;17.50;;
73684;SDS011;61985;51.070;14.064;2024-03-06T02:44:32;40.35;;;17.63;;
73684;SDS011;61985;51.070;14.064;2024-03-06T02:46:58;39.58;;;17.35;;
73684;SDS011;61985;51.070;14.064;2024-03-06T02:49:24;39.22;;;18.30;;
73684;SDS011;61985;51.070;14.064;2024-03-06T02:51:49;37.08;;;17.20;;
73684;SDS011;61985;51.070;14.064;2024-03-06T02:54:15;38.63;;;18.38;;
73684;SDS011;61985;51.070;14.064;2024-03-06T02:56:41;35.08;;;17.48;;
73684;SDS011;61985;51.070;14.064;2024-03-06T02:59:06;41.58;;;18.15;;
73684;SDS011;61985;51.070;14.064;2024-03-06T03:01:32;40.17;;;17.15;;
73684;SDS011;61985;51.070;14.064;2024-03-06T03:03:57;37.83;;;17.15;;
73684;SDS011;61985;51.070;14.064;2024-03-06T03:06:23;40.08;;;18.38;;
73684;SDS011;61985;51.070;14.064;2024-03-06T03:08:49;38.95;;;18.10;;
73684;SDS011;61985;51.070;14.064;2024-03-06T03:11:14;40.20;;;18.17;;
73684;SDS011;61985;51.070;14.064;2024-03-06T03:13:41;37.63;;;18.20;;
73684;SDS011;61985;51.070;14.064;2024-03-06T03:16:06;39.03;;;17.83;;
73684;SDS011;61985;51.070;14.064;2024-03-06T03:18:32;40.88;;;17.88;;
73684;SDS011;61985;51.070;14.064;2024-03-06T03:20:57;35.58;;;17.35;;
73684;SDS011;61985;51.070;14.064;2024-03-06T03:23:23;37.58;;;16.58;;
73684;SDS011;61985;51.070;14.064;2024-03-06T03:25:48;38.83;;;17.95;;
73684;SDS011;61985;51.070;14.064;2024-03-06T03:28:14;41.17;;;17.67;;
73684;SDS011;61985;51.070;14.064;2024-03-06T03:30:40;40.67;;;17.50;;
73684;SDS011;61985;51.070;14.064;2024-03-06T03:33:05;39.95;;;18.17;;
73684;SDS011;61985;51.070;14.064;2024-03-06T03:35:30;37.97;;;17.48;;
73684;SDS011;61985;51.070;14.064;2024-03-06T03:37:57;36.55;;;17.02;;
73684;SDS011;61985;51.070;14.064;2024-03-06T03:40:22;34.10;;;17.08;;
73684;SDS011;61985;51.070;14.064;2024-03-06T03:42:48;39.17;;;18.05;;
73684;SDS011;61985;51.070;14.064;2024-03-06T03:45:13;39.97;;;18.17;;
73684;SDS011;61985;51.070;14.064;2024-03-06T03:47:39;39.03;;;17.30;;
73684;SDS011;61985;51.070;14.064;2024-03-06T03:50:07;36.38;;;17.25;;
73684;SDS011;61985;51.070;14.064;2024-03-06T03:52:33;39.53;;;17.85;;
73684;SDS011;61985;51.070;14.064;2024-03-06T03:54:59;40.50;;;17.48;;
73684;SDS011;61985;51.070;14.064;2024-03-06T03:57:24;40.95;;;17.20;;
73684;SDS011;61985;51.070;14.064;2024-03-06T03:59:49;36.60;;;16.60;;
73684;SDS011;61985;51.070;14.064;2024-03-06T04:02:16;36.55;;;17.27;;
73684;SDS011;61985;51.070;14.064;2024-03-06T04:04:42;36.95;;;17.25;;
73684;SDS011;61985;51.070;14.064;2024-03-06T04:07:07;39.13;;;17.05;;
73684;SDS011;61985;51.070;14.064;2024-03-06T04:09:33;39.38;;;17.67;;
73684;SDS011;61985;51.070;14.064;2024-03-06T04:12:01;38.85;;;17.10;;
73684;SDS011;61985;51.070;14.064;2024-03-06T04:14:27;39.58;;;16.75;;
73684;SDS011;61985;51.070;14.064;2024-03-06T04:16:53;36.38;;;16.85;;
73684;SDS011;61985;51.070;14.064;2024-03-06T04:19:18;36.85;;;17.17;;
73684;SDS011;61985;51.070;14.064;2024-03-06T04:21:44;38.80;;;16.90;;
73684;SDS011;61985;51.070;14.064;2024-03-06T04:24:09;33.45;;;16.88;;
73684;SDS011;61985;51.070;14.064;2024-03-06T04:26:35;37.10;;;17.10;;
73684;SDS011;61985;51.070;14.064;2024-03-06T04:29:00;38.72;;;15.60;;
73684;SDS011;61985;51.070;14.064;2024-03-06T04:31:26;33.72;;;16.50;;
73684;SDS011;61985;51.070;14.064;2024-03-06T04:33:51;32.15;;;16.40;;
73684;SDS011;61985;51.070;14.064;2024-03-06T04:36:16;35.47;;;17.00;;
73684;SDS011;61985;51.070;14.064;2024-03-06T04:38:42;36.03;;;17.75;;
73684;SDS011;61985;51.070;14.064;2024-03-06T04:41:07;36.55;;;16.88;;
73684;SDS011;61985;51.070;14.064;2024-03-06T04:43:33;36.17;;;15.70;;
73684;SDS011;61985;51.070;14.064;2024-03-06T04:45:58;37.85;;;16.23;;
73684;SDS011;61985;51.070;14.064;2024-03-06T04:48:24;34.53;;;17.15;;
73684;SDS011;61985;51.070;14.064;2024-03-06T04:50:49;36.28;;;16.33;;
73684;SDS011;61985;51.070;14.064;2024-03-06T04:53:14;36.58;;;16.58;;
73684;SDS011;61985;51.070;14.064;2024-03-06T04:55:40;35.55;;;16.98;;
73684;SDS011;61985;51.070;14.064;2024-03-06T04:58:06;39.45;;;16.58;;
73684;SDS011;61985;51.070;14.064;2024-03-06T05:00:32;36.95;;;16.88;;
73684;SDS011;61985;51.070;14.064;2024-03-06T05:02:57;42.17;;;17.73;;
73684;SDS011;61985;51.070;14.064;2024-03-06T05:05:23;40.03;;;17.20;;
73684;SDS011;61985;51.070;14.064;2024-03-06T05:07:50;36.38;;;16.63;;
73684;SDS011;61985;51.070;14.064;2024-03-06T05:10:15;36.92;;;16.70;;
73684;SDS011;61985;51.070;14.064;2024-03-06T05:12:41;40.80;;;17.20;;
73684;SDS011;61985;51.070;14.064;2024-03-06T05:15:08;39.05;;;17.90;;
73684;SDS011;61985;51.070;14.064;2024-03-06T05:17:34;36.60;;;16.35;;
73684;SDS011;61985;51.070;14.064;2024-03-06T05:19:59;36.58;;;17.48;;
73684;SDS011;61985;51.070;14.064;2024-03-06T05:22:25;37.05;;;17.95;;
73684;SDS011;61985;51.070;14.064;2024-03-06T05:24:51;40.08;;;18.77;;
73684;SDS011;61985;51.070;14.064;2024-03-06T05:27:17;39.17;;;18.50;;
73684;SDS011;61985;51.070;14.064;2024-03-06T05:29:43;40.15;;;19.35;;
73684;SDS011;61985;51.070;14.064;2024-03-06T05:32:09;46.72;;;21.15;;
73684;SDS011;61985;51.070;14.064;2024-03-06T05:34:34;47.97;;;19.55;;
73684;SDS011;61985;51.070;14.064;2024-03-06T05:37:00;43.28;;;19.20;;
73684;SDS011;61985;51.070;14.064;2024-03-06T05:39:26;44.83;;;19.58;;
73684;SDS011;61985;51.070;14.064;2024-03-06T05:41:53;115.70;;;39.78;;
73684;SDS011;61985;51.070;14.064;2024-03-06T05:44:19;49.00;;;21.55;;
73684;SDS011;61985;51.070;14.064;2024-03-06T05:46:45;57.95;;;26.30;;
73684;SDS011;61985;51.070;14.064;2024-03-06T05:49:12;55.80;;;19.23;;
73684;SDS011;61985;51.070;14.064;2024-03-06T05:51:37;69.90;;;31.77;;
73684;SDS011;61985;51.070;14.064;2024-03-06T05:54:03;94.40;;;27.50;;
73684;SDS011;61985;51.070;14.064;2024-03-06T05:56:29;48.40;;;18.52;;
73684;SDS011;61985;51.070;14.064;2024-03-06T05:58:55;43.72;;;19.45;;
73684;SDS011;61985;51.070;14.064;2024-03-06T06:01:20;48.92;;;18.90;;
73684;SDS011;61985;51.070;14.064;2024-03-06T06:03:46;44.65;;;20.20;;
73684;SDS011;61985;51.070;14.064;2024-03-06T06:06:16;40.42;;;18.10;;
73684;SDS011;61985;51.070;14.064;2024-03-06T06:08:42;38.85;;;17.80;;
73684;SDS011;61985;51.070;14.064;2024-03-06T06:11:09;39.58;;;17.63;;
73684;SDS011;61985;51.070;14.064;2024-03-06T06:13:35;41.70;;;17.60;;
73684;SDS011;61985;51.070;14.064;2024-03-06T06:16:00;34.53;;;15.82;;
73684;SDS011;61985;51.070;14.064;2024-03-06T06:18:28;37.40;;;17.63;;
73684;SDS011;61985;51.070;14.064;2024-03-06T06:20:54;36.13;;;18.70;;
73684;SDS011;61985;51.070;14.064;2024-03-06T06:23:19;34.70;;;16.05;;
73684;SDS011;61985;51.070;14.064;2024-03-06T06:25:45;36.38;;;16.65;;
73684;SDS011;61985;51.070;14.064;2024-03-06T06:28:11;34.67;;;16.45;;
73684;SDS011;61985;51.070;14.064;2024-03-06T06:30:36;40.22;;;17.52;;
73684;SDS011;61985;51.070;14.064;2024-03-06T06:33:03;37.45;;;16.65;;
73684;SDS011;61985;51.070;14.064;2024-03-06T06:35:29;39.60;;;18.17;;
73684;SDS011;61985;51.070;14.064;2024-03-06T06:37:55;35.10;;;17.67;;
73684;SDS011;61985;51.070;14.064;2024-03-06T06:40:20;33.22;;;17.27;;
73684;SDS011;61985;51.070;14.064;2024-03-06T06:42:47;35.58;;;17.10;;
73684;SDS011;61985;51.070;14.064;2024-03-06T06:45:17;43.70;;;19.88;;
73684;SDS011;61985;51.070;14.064;2024-03-06T06:47:44;37.25;;;17.90;;
73684;SDS011;61985;51.070;14.064;2024-03-06T06:50:09;41.30;;;19.92;;
73684;SDS011;61985;51.070;14.064;2024-03-06T06:52:36;43.10;;;18.73;;
73684;SDS011;61985;51.070;14.064;2024-03-06T06:55:02;38.05;;;18.13;;
73684;SDS011;61985;51.070;14.064;2024-03-06T06:57:29;46.55;;;19.55;;
73684;SDS011;61985;51.070;14.064;2024-03-06T06:59:55;38.33;;;18.85;;
73684;SDS011;61985;51.070;14.064;2024-03-06T07:02:20;54.30;;;22.98;;
73684;SDS011;61985;51.070;14.064;2024-03-06T07:04:45;50.40;;;22.73;;
73684;SDS011;61985;51.070;14.064;2024-03-06T07:07:11;45.33;;;20.02;;
73684;SDS011;61985;51.070;14.064;2024-03-06T07:09:36;42.65;;;19.92;;
73684;SDS011;61985;51.070;14.064;2024-03-06T07:12:02;49.85;;;20.45;;
73684;SDS011;61985;51.070;14.064;2024-03-06T07:14:28;38.33;;;17.92;;
73684;SDS011;61985;51.070;14.064;2024-03-06T07:16:53;42.72;;;20.38;;
73684;SDS011;61985;51.070;14.064;2024-03-06T07:19:19;42.00;;;18.75;;
73684;SDS011;61985;51.070;14.064;2024-03-06T07:21:45;39.03;;;19.45;;
73684;SDS011;61985;51.070;14.064;2024-03-06T07:24:10;42.88;;;19.52;;
73684;SDS011;61985;51.070;14.064;2024-03-06T07:26:36;49.60;;;23.55;;
73684;SDS011;61985;51.070;14.064;2024-03-06T07:29:01;47.10;;;20.98;;
73684;SDS011;61985;51.070;14.064;2024-03-06T07:31:27;46.17;;;20.45;;
73684;SDS011;61985;51.070;14.064;2024-03-06T07:33:53;44.05;;;18.20;;
73684;SDS011;61985;51.070;14.064;2024-03-06T07:36:19;38.35;;;17.85;;
73684;SDS011;61985;51.070;14.064;2024-03-06T07:38:44;48.30;;;19.70;;
73684;SDS011;61985;51.070;14.064;2024-03-06T07:41:10;42.63;;;19.45;;
73684;SDS011;61985;51.070;14.064;2024-03-06T07:43:35;43.03;;;20.17;;
73684;SDS011;61985;51.070;14.064;2024-03-06T07:46:01;46.88;;;21.05;;
73684;SDS011;61985;51.070;14.064;2024-03-06T07:48:27;45.28;;;19.75;;
73684;SDS011;61985;51.070;14.064;2024-03-06T07:50:52;40.20;;;18.25;;
73684;SDS011;61985;51.070;14.064;2024-03-06T07:53:18;45.75;;;21.30;;
73684;SDS011;61985;51.070;14.064;2024-03-06T07:55:43;41.75;;;19.67;;
73684;SDS011;61985;51.070;14.064;2024-03-06T07:58:09;49.05;;;20.92;;
73684;SDS011;61985;51.070;14.064;2024-03-06T08:00:35;50.05;;;21.75;;
73684;SDS011;61985;51.070;14.064;2024-03-06T08:03:01;45.30;;;20.45;;
73684;SDS011;61985;51.070;14.064;2024-03-06T08:05:27;47.00;;;20.83;;
73684;SDS011;61985;51.070;14.064;2024-03-06T08:07:53;62.33;;;23.48;;
73684;SDS011;61985;51.070;14.064;2024-03-06T08:10:18;48.60;;;21.92;;
73684;SDS011;61985;51.070;14.064;2024-03-06T08:12:44;49.10;;;21.05;;
73684;SDS011;61985;51.070;14.064;2024-03-06T08:15:13;50.92;;;23.73;;
73684;SDS011;61985;51.070;14.064;2024-03-06T08:17:39;48.45;;;22.50;;
73684;SDS011;61985;51.070;14.064;2024-03-06T08:20:07;47.80;;;21.45;;
73684;SDS011;61985;51.070;14.064;2024-03-06T08:22:40;46.55;;;21.23;;
73684;SDS011;61985;51.070;14.064;2024-03-06T08:25:10;49.42;;;21.83;;
73684;SDS011;61985;51.070;14.064;2024-03-06T08:27:40;52.80;;;22.60;;
73684;SDS011;61985;51.070;14.064;2024-03-06T08:30:07;51.90;;;23.02;;
73684;SDS011;61985;51.070;14.064;2024-03-06T08:32:33;50.63;;;20.60;;
73684;SDS011;61985;51.070;14.064;2024-03-06T08:35:10;43.78;;;20.42;;
73684;SDS011;61985;51.070;14.064;2024-03-06T08:37:38;51.30;;;22.77;;
73684;SDS011;61985;51.070;14.064;2024-03-06T08:40:04;51.75;;;23.08;;
73684;SDS011;61985;51.070;14.064;2024-03-06T08:42:30;49.00;;;22.65;;
73684;SDS011;61985;51.070;14.064;2024-03-06T08:44:55;45.05;;;21.50;;
73684;SDS011;61985;51.070;14.064;2024-03-06T08:47:21;45.15;;;21.73;;
73684;SDS011;61985;51.070;14.064;2024-03-06T08:49:47;49.55;;;21.77;;
73684;SDS011;61985;51.070;14.064;2024-03-06T08:52:13;53.13;;;23.77;;
73684;SDS011;61985;51.070;14.064;2024-03-06T08:54:39;49.90;;;21.48;;
73684;SDS011;61985;51.070;14.064;2024-03-06T08:57:06;52.63;;;22.48;;
73684;SDS011;61985;51.070;14.064;2024-03-06T08:59:33;48.80;;;22.80;;
73684;SDS011;61985;51.070;14.064;2024-03-06T09:02:14;49.05;;;20.65;;
73684;SDS011;61985;51.070;14.064;2024-03-06T09:04:41;37.45;;;18.35;;
73684;SDS011;61985;51.070;14.064;2024-03-06T09:07:07;49.97;;;22.65;;
73684;SDS011;61985;51.070;14.064;2024-03-06T09:09:33;50.33;;;22.58;;
73684;SDS011;61985;51.070;14.064;2024-03-06T09:12:00;50.38;;;23.25;;
73684;SDS011;61985;51.070;14.064;2024-03-06T09:14:32;54.33;;;20.63;;
73684;SDS011;61985;51.070;14.064;2024-03-06T09:16:58;55.30;;;23.92;;
73684;SDS011;61985;51.070;14.064;2024-03-06T09:19:24;46.67;;;22.60;;
73684;SDS011;61985;51.070;14.064;2024-03-06T09:21:49;51.13;;;22.58;;
73684;SDS011;61985;51.070;14.064;2024-03-06T09:24:14;53.28;;;24.20;;
73684;SDS011;61985;51.070;14.064;2024-03-06T09:26:40;39.88;;;20.95;;
73684;SDS011;61985;51.070;14.064;2024-03-06T09:29:05;53.30;;;21.13;;
73684;SDS011;61985;51.070;14.064;2024-03-06T09:31:31;44.35;;;21.02;;
73684;SDS011;61985;51.070;14.064;2024-03-06T09:33:56;48.40;;;22.98;;
73684;SDS011;61985;51.070;14.064;2024-03-06T09:36:22;50.03;;;22.90;;
73684;SDS011;61985;51.070;14.064;2024-03-06T09:38:48;51.63;;;24.83;;
73684;SDS011;61985;51.070;14.064;2024-03-06T09:41:13;46.67;;;20.65;;
73684;SDS011;61985;51.070;14.064;2024-03-06T09:43:39;49.67;;;23.80;;
73684;SDS011;61985;51.070;14.064;2024-03-06T09:46:06;45.58;;;21.65;;
73684;SDS011;61985;51.070;14.064;2024-03-06T09:48:32;47.30;;;22.08;;
73684;SDS011;61985;51.070;14.064;2024-03-06T09:51:00;40.47;;;18.52;;
73684;SDS011;61985;51.070;14.064;2024-03-06T09:53:30;45.55;;;20.85;;
73684;SDS011;61985;51.070;14.064;2024-03-06T09:55:56;39.45;;;19.15;;
73684;SDS011;61985;51.070;14.064;2024-03-06T09:58:23;42.03;;;20.02;;
73684;SDS011;61985;51.070;14.064;2024-03-06T10:00:49;46.95;;;20.85;;
73684;SDS011;61985;51.070;14.064;2024-03-06T10:03:16;45.83;;;20.30;;
73684;SDS011;61985;51.070;14.064;2024-03-06T10:05:41;37.78;;;17.95;;
73684;SDS011;61985;51.070;14.064;2024-03-06T10:08:08;46.45;;;21.85;;
73684;SDS011;61985;51.070;14.064;2024-03-06T10:10:35;45.67;;;20.90;;
73684;SDS011;61985;51.070;14.064;2024-03-06T10:13:01;49.58;;;20.70;;
73684;SDS011;61985;51.070;14.064;2024-03-06T10:15:27;41.67;;;19.52;;
73684;SDS011;61985;51.070;14.064;2024-03-06T10:20:52;50.53;;;22.42;;
73684;SDS011;61985;51.070;14.064;2024-03-06T10:23:18;46.42;;;21.10;;
73684;SDS011;61985;51.070;14.064;2024-03-06T10:25:49;51.53;;;21.33;;
73684;SDS011;61985;51.070;14.064;2024-03-06T10:28:18;42.42;;;19.05;;
73684;SDS011;61985;51.070;14.064;2024-03-06T10:30:45;53.38;;;21.45;;
73684;SDS011;61985;51.070;14.064;2024-03-06T10:33:11;51.80;;;22.83;;
73684;SDS011;61985;51.070;14.064;2024-03-06T10:35:41;48.42;;;22.52;;
73684;SDS011;61985;51.070;14.064;2024-03-06T10:38:08;46.80;;;21.30;;
73684;SDS011;61985;51.070;14.064;2024-03-06T10:40:36;41.78;;;19.42;;
73684;SDS011;61985;51.070;14.064;2024-03-06T10:43:03;48.95;;;21.42;;
73684;SDS011;61985;51.070;14.064;2024-03-06T10:45:40;41.83;;;18.63;;
73684;SDS011;61985;51.070;14.064;2024-03-06T10:48:09;48.13;;;19.85;;
73684;SDS011;61985;51.070;14.064;2024-03-06T10:50:38;47.28;;;20.90;;
73684;SDS011;61985;51.070;14.064;2024-03-06T10:53:11;46.45;;;20.27;;
73684;SDS011;61985;51.070;14.064;2024-03-06T10:55:38;53.38;;;20.65;;
73684;SDS011;61985;51.070;14.064;2024-03-06T10:58:07;46.03;;;19.98;;
73684;SDS011;61985;51.070;14.064;2024-03-06T11:03:12;36.90;;;17.42;;
73684;SDS011;61985;51.070;14.064;2024-03-06T11:05:38;47.20;;;21.58;;
73684;SDS011;61985;51.070;14.064;2024-03-06T11:08:07;41.83;;;20.15;;
73684;SDS011;61985;51.070;14.064;2024-03-06T11:10:34;47.38;;;19.88;;
73684;SDS011;61985;51.070;14.064;2024-03-06T11:13:01;40.95;;;19.95;;
73684;SDS011;61985;51.070;14.064;2024-03-06T11:15:28;48.47;;;21.60;;
73684;SDS011;61985;51.070;14.064;2024-03-06T11:17:53;46.35;;;20.95;;
73684;SDS011;61985;51.070;14.064;2024-03-06T11:20:20;48.17;;;21.63;;
73684;SDS011;61985;51.070;14.064;2024-03-06T11:28:18;46.53;;;21.67;;
73684;SDS011;61985;51.070;14.064;2024-03-06T11:30:45;46.60;;;20.05;;
73684;SDS011;61985;51.070;14.064;2024-03-06T11:33:14;44.25;;;20.30;;
73684;SDS011;61985;51.070;14.064;2024-03-06T11:41:22;47.90;;;21.80;;
73684;SDS011;61985;51.070;14.064;2024-03-06T11:43:48;49.83;;;20.80;;
73684;SDS011;61985;51.070;14.064;2024-03-06T11:46:15;50.17;;;22.23;;
73684;SDS011;61985;51.070;14.064;2024-03-06T11:48:42;50.90;;;21.77;;
73684;SDS011;61985;51.070;14.064;2024-03-06T11:51:08;49.55;;;21.15;;
73684;SDS011;61985;51.070;14.064;2024-03-06T11:53:34;46.47;;;19.73;;
73684;SDS011;61985;51.070;14.064;2024-03-06T11:56:01;52.67;;;20.98;;
73684;SDS011;61985;51.070;14.064;2024-03-06T11:58:26;44.63;;;20.83;;
73684;SDS011;61985;51.070;14.064;2024-03-06T12:00:53;49.53;;;21.88;;
73684;SDS011;61985;51.070;14.064;2024-03-06T12:03:19;45.50;;;21.00;;
73684;SDS011;61985;51.070;14.064;2024-03-06T12:05:45;51.00;;;23.10;;
73684;SDS011;61985;51.070;14.064;2024-03-06T12:08:11;44.28;;;19.80;;
73684;SDS011;61985;51.070;14.064;2024-03-06T12:10:37;49.40;;;21.92;;
73684;SDS011;61985;51.070;14.064;2024-03-06T12:13:04;55.88;;;23.05;;
73684;SDS011;61985;51.070;14.064;2024-03-06T12:15:30;51.70;;;23.13;;
73684;SDS011;61985;51.070;14.064;2024-03-06T12:17:55;49.65;;;23.55;;
73684;SDS011;61985;51.070;14.064;2024-03-06T12:20:21;47.35;;;21.23;;
73684;SDS011;61985;51.070;14.064;2024-03-06T12:22:50;48.22;;;23.75;;
73684;SDS011;61985;51.070;14.064;2024-03-06T12:25:23;50.22;;;23.50;;
73684;SDS011;61985;51.070;14.064;2024-03-06T12:27:51;54.15;;;23.83;;
73684;SDS011;61985;51.070;14.064;2024-03-06T12:30:18;54.25;;;24.30;;
73684;SDS011;61985;51.070;14.064;2024-03-06T12:32:58;44.42;;;23.02;;
73684;SDS011;61985;51.070;14.064;2024-03-06T12:35:30;44.60;;;22.15;;
73684;SDS011;61985;51.070;14.064;2024-03-06T12:37:57;46.58;;;23.05;;
73684;SDS011;61985;51.070;14.064;2024-03-06T12:40:23;49.08;;;22.50;;
73684;SDS011;61985;51.070;14.064;2024-03-06T12:42:49;58.92;;;28.88;;
73684;SDS011;61985;51.070;14.064;2024-03-06T12:45:15;46.08;;;21.95;;
73684;SDS011;61985;51.070;14.064;2024-03-06T12:47:41;44.67;;;23.15;;
73684;SDS011;61985;51.070;14.064;2024-03-06T12:50:07;44.67;;;24.70;;
73684;SDS011;61985;51.070;14.064;2024-03-06T12:52:33;46.97;;;21.95;;
73684;SDS011;61985;51.070;14.064;2024-03-06T12:54:59;44.63;;;21.90;;
73684;SDS011;61985;51.070;14.064;2024-03-06T12:57:25;45.50;;;21.30;;
73684;SDS011;61985;51.070;14.064;2024-03-06T12:59:52;42.00;;;22.42;;
73684;SDS011;61985;51.070;14.064;2024-03-06T13:02:18;49.63;;;24.95;;
73684;SDS011;61985;51.070;14.064;2024-03-06T13:04:43;50.83;;;23.52;;
73684;SDS011;61985;51.070;14.064;2024-03-06T13:07:09;43.92;;;21.67;;
73684;SDS011;61985;51.070;14.064;2024-03-06T13:09:34;42.42;;;21.70;;
73684;SDS011;61985;51.070;14.064;2024-03-06T13:11:59;42.80;;;22.38;;
73684;SDS011;61985;51.070;14.064;2024-03-06T13:14:25;40.17;;;21.05;;
73684;SDS011;61985;51.070;14.064;2024-03-06T13:16:50;37.33;;;19.33;;
73684;SDS011;61985;51.070;14.064;2024-03-06T13:19:15;42.88;;;21.00;;
73684;SDS011;61985;51.070;14.064;2024-03-06T13:21:41;44.63;;;22.45;;
73684;SDS011;61985;51.070;14.064;2024-03-06T13:24:06;43.33;;;21.33;;
73684;SDS011;61985;51.070;14.064;2024-03-06T13:26:32;39.28;;;21.50;;
73684;SDS011;61985;51.070;14.064;2024-03-06T13:28:57;41.90;;;22.13;;
73684;SDS011;61985;51.070;14.064;2024-03-06T13:31:24;34.08;;;19.08;;
73684;SDS011;61985;51.070;14.064;2024-03-06T13:33:50;37.55;;;19.38;;
73684;SDS011;61985;51.070;14.064;2024-03-06T13:36:15;34.08;;;18.42;;
73684;SDS011;61985;51.070;14.064;2024-03-06T13:38:40;33.00;;;16.88;;
73684;SDS011;61985;51.070;14.064;2024-03-06T13:41:06;32.85;;;18.02;;
73684;SDS011;61985;51.070;14.064;2024-03-06T13:43:31;36.38;;;19.27;;
73684;SDS011;61985;51.070;14.064;2024-03-06T13:45:57;34.47;;;17.83;;
73684;SDS011;61985;51.070;14.064;2024-03-06T13:48:23;37.20;;;18.52;;
73684;SDS011;61985;51.070;14.064;2024-03-06T13:50:48;34.60;;;19.08;;
73684;SDS011;61985;51.070;14.064;2024-03-06T13:53:14;31.17;;;17.92;;
73684;SDS011;61985;51.070;14.064;2024-03-06T13:55:40;36.78;;;19.58;;
73684;SDS011;61985;51.070;14.064;2024-03-06T13:58:06;36.20;;;18.45;;
73684;SDS011;61985;51.070;14.064;2024-03-06T14:00:32;33.25;;;18.60;;
73684;SDS011;61985;51.070;14.064;2024-03-06T14:02:59;35.25;;;18.80;;
73684;SDS011;61985;51.070;14.064;2024-03-06T14:05:25;34.90;;;18.13;;
73684;SDS011;61985;51.070;14.064;2024-03-06T14:07:53;39.70;;;18.88;;
73684;SDS011;61985;51.070;14.064;2024-03-06T14:10:19;31.23;;;18.02;;
73684;SDS011;61985;51.070;14.064;2024-03-06T14:12:46;33.20;;;17.73;;
73684;SDS011;61985;51.070;14.064;2024-03-06T14:15:12;31.60;;;16.95;;
73684;SDS011;61985;51.070;14.064;2024-03-06T14:17:38;33.10;;;16.38;;
73684;SDS011;61985;51.070;14.064;2024-03-06T14:20:04;35.30;;;16.30;;